createdAt,value
2019-03-24T00:00:35.274Z,38.07
2019-03-24T00:03:23.165Z,39.90
2019-03-24T00:06:10.736Z,45.27
2019-03-24T00:08:58.645Z,41.30
2019-03-24T00:11:46.717Z,43.67
2019-03-24T00:14:34.614Z,41.47
2019-03-24T00:17:22.452Z,38.17
2019-03-24T00:20:10.766Z,40.00
2019-03-24T00:22:58.997Z,36.63
2019-03-24T00:25:47.144Z,39.73
2019-03-24T00:28:34.890Z,39.47
2019-03-24T00:31:23.023Z,38.27
2019-03-24T00:34:10.937Z,47.10
2019-03-24T00:36:59.088Z,36.87
2019-03-24T00:39:46.709Z,39.10
2019-03-24T00:42:35.052Z,43.03
2019-03-24T00:45:23.197Z,42.97
2019-03-24T00:48:11.347Z,39.97
2019-03-24T00:50:59.492Z,43.43
2019-03-24T00:53:47.372Z,45.80
2019-03-24T00:56:35.573Z,46.43
2019-03-24T00:59:23.746Z,43.27
2019-03-24T01:02:11.645Z,44.07
2019-03-24T01:04:59.500Z,40.53
2019-03-24T01:07:47.381Z,39.80
2019-03-24T01:10:34.978Z,40.37
2019-03-24T01:13:23.062Z,40.10
2019-03-24T01:16:10.801Z,42.33
2019-03-24T01:18:58.777Z,37.57
2019-03-24T01:21:46.703Z,41.67
2019-03-24T01:24:34.629Z,44.50
2019-03-24T01:27:23.078Z,41.37
2019-03-24T01:30:11.678Z,40.20
2019-03-24T01:32:59.679Z,41.63
2019-03-24T01:35:47.574Z,43.53
2019-03-24T01:38:35.698Z,43.37
2019-03-24T01:41:23.813Z,49.33
2019-03-24T01:44:11.958Z,44.73
2019-03-24T01:46:59.828Z,44.80
2019-03-24T01:49:47.903Z,43.27
2019-03-24T01:52:36.136Z,45.93
2019-03-24T01:55:23.804Z,46.27
2019-03-24T01:58:11.884Z,47.73
2019-03-24T02:00:59.784Z,42.50
2019-03-24T02:03:47.733Z,45.77
2019-03-24T02:06:35.911Z,42.30
2019-03-24T02:09:24.298Z,38.97
2019-03-24T02:12:12.519Z,44.40
2019-03-24T02:15:00.392Z,44.77
2019-03-24T02:17:48.612Z,45.33
2019-03-24T02:20:36.753Z,47.43
2019-03-24T02:23:24.569Z,43.77
2019-03-24T02:26:12.487Z,46.30
2019-03-24T02:29:00.702Z,42.53
2019-03-24T02:31:48.526Z,44.07
2019-03-24T02:34:36.680Z,47.33
2019-03-24T02:37:25.738Z,48.40
2019-03-24T02:40:14.161Z,48.27
2019-03-24T02:43:02.131Z,43.33
2019-03-24T02:45:50.557Z,47.63
2019-03-24T02:48:38.718Z,39.67
2019-03-24T02:51:26.823Z,46.73
2019-03-24T02:54:14.599Z,44.23
2019-03-24T02:57:02.456Z,40.80
2019-03-24T02:59:50.059Z,46.30
2019-03-24T03:02:38.426Z,43.07
2019-03-24T03:05:26.766Z,44.33
2019-03-24T03:08:14.709Z,43.27
2019-03-24T03:11:02.606Z,44.17
2019-03-24T03:13:50.229Z,43.77
2019-03-24T03:16:39.356Z,45.60
2019-03-24T03:19:27.537Z,48.40
2019-03-24T03:22:15.493Z,45.87
2019-03-24T03:25:03.435Z,45.23
2019-03-24T03:27:51.656Z,43.67
2019-03-24T03:30:39.945Z,45.83
2019-03-24T03:33:28.378Z,53.17
2019-03-24T03:36:16.705Z,50.33
2019-03-24T03:39:06.322Z,53.17
2019-03-24T03:41:54.338Z,48.07
2019-03-24T03:44:41.945Z,48.17
2019-03-24T03:47:29.889Z,47.77
2019-03-24T03:50:17.804Z,43.37
2019-03-24T03:53:05.808Z,43.47
2019-03-24T03:55:53.906Z,47.43
2019-03-24T03:58:42.333Z,47.93
2019-03-24T04:01:30.213Z,48.13
2019-03-24T04:04:17.893Z,45.73
2019-03-24T04:07:06.241Z,45.83
2019-03-24T04:09:54.366Z,45.73
2019-03-24T04:12:42.972Z,44.90
2019-03-24T04:15:31.217Z,50.37
2019-03-24T04:18:19.410Z,46.53
2019-03-24T04:21:20.733Z,47.03
2019-03-24T04:27:14.453Z,53.63
2019-03-24T04:30:03.119Z,47.67
2019-03-24T04:32:57.714Z,47.57
2019-03-24T04:36:12.389Z,46.93
2019-03-24T04:39:21.235Z,51.53
2019-03-24T04:42:15.883Z,47.63
2019-03-24T04:45:15.991Z,52.43
2019-03-24T04:48:05.036Z,48.23
2019-03-24T04:50:54.151Z,52.13
2019-03-24T04:53:45.684Z,51.13
2019-03-24T04:56:53.805Z,57.87
2019-03-24T04:59:54.709Z,52.27
2019-03-24T05:02:43.488Z,50.83
2019-03-24T05:05:42.123Z,51.37
2019-03-24T05:08:35.911Z,52.63
2019-03-24T05:11:55.956Z,51.13
2019-03-24T05:15:01.147Z,47.33
2019-03-24T05:17:53.980Z,49.43
2019-03-24T05:20:46.012Z,45.20
2019-03-24T05:23:35.808Z,55.83
2019-03-24T05:26:35.956Z,50.00
2019-03-24T05:29:27.404Z,51.93
2019-03-24T05:32:18.202Z,53.07
2019-03-24T05:35:13.731Z,52.13
2019-03-24T05:38:04.911Z,52.27
2019-03-24T05:41:13.859Z,55.93
2019-03-24T05:44:05.947Z,49.67
2019-03-24T05:46:54.589Z,51.70
2019-03-24T05:49:44.567Z,49.90
2019-03-24T05:52:35.333Z,50.43
2019-03-24T05:55:28.337Z,44.90
2019-03-24T05:58:18.899Z,48.40
2019-03-24T06:01:29.052Z,54.60
2019-03-24T06:04:19.424Z,49.77
2019-03-24T06:07:23.783Z,47.70
2019-03-24T06:10:16.282Z,48.50
2019-03-24T06:13:14.401Z,56.37
2019-03-24T06:16:06.882Z,49.10
2019-03-24T06:18:57.756Z,53.07
2019-03-24T06:22:46.142Z,49.07
2019-03-24T06:26:03.687Z,49.50
2019-03-24T06:29:22.536Z,49.13
2019-03-24T06:32:41.091Z,49.03
2019-03-24T06:36:11.834Z,48.87
2019-03-24T06:39:48.003Z,48.93
2019-03-24T06:43:10.345Z,52.23
2019-03-24T06:47:03.308Z,48.57
2019-03-24T06:50:39.169Z,53.97
2019-03-24T07:01:21.614Z,49.80
2019-03-24T07:04:54.252Z,53.00
2019-03-24T07:08:21.171Z,48.50
2019-03-24T07:12:20.380Z,51.60
2019-03-24T07:20:04.980Z,53.77
2019-03-24T07:23:23.326Z,48.87
2019-03-24T07:27:29.906Z,56.37
2019-03-24T07:30:48.359Z,53.83
2019-03-24T07:38:49.913Z,57.80
2019-03-24T07:42:48.137Z,53.87
2019-03-24T07:46:14.678Z,56.73
2019-03-24T07:49:57.383Z,55.60
2019-03-24T07:53:26.181Z,54.37
2019-03-24T07:57:02.224Z,52.53
2019-03-24T07:59:50.488Z,54.50
2019-03-24T08:02:50.840Z,53.97
2019-03-24T08:05:31.988Z,53.27
2019-03-24T08:08:20.598Z,66.03
2019-03-24T08:11:23.259Z,56.03
2019-03-24T08:14:12.135Z,62.00
2019-03-24T08:17:00.685Z,57.53
2019-03-24T08:20:07.843Z,58.90
2019-03-24T08:27:12.895Z,64.67
2019-03-24T08:30:01.687Z,63.60
2019-03-24T08:32:52.256Z,60.40
2019-03-24T08:35:40.708Z,63.03
2019-03-24T08:38:28.852Z,68.23
2019-03-24T08:41:18.149Z,65.83
2019-03-24T08:44:06.677Z,67.90
2019-03-24T08:46:55.088Z,67.47
2019-03-24T08:49:44.223Z,74.87
2019-03-24T08:52:44.611Z,70.23
2019-03-24T08:55:33.268Z,67.70
2019-03-24T08:58:25.393Z,71.63
2019-03-24T09:01:17.236Z,78.93
2019-03-24T09:04:07.190Z,77.03
2019-03-24T09:06:55.459Z,80.23
2019-03-24T09:09:47.544Z,81.57
2019-03-24T09:12:38.337Z,86.13
2019-03-24T09:15:29.515Z,83.90
2019-03-24T09:18:21.418Z,82.53
2019-03-24T09:21:10.454Z,83.93
2019-03-24T09:23:59.237Z,89.53
2019-03-24T09:26:47.918Z,85.93
2019-03-24T09:29:36.553Z,91.13
2019-03-24T09:32:38.177Z,84.23
2019-03-24T09:35:26.386Z,80.43
2019-03-24T09:38:17.548Z,80.93
2019-03-24T09:41:06.915Z,80.27
2019-03-24T09:43:55.565Z,78.73
2019-03-24T09:46:46.656Z,82.77
2019-03-24T09:49:35.399Z,89.87
2019-03-24T09:52:29.488Z,84.83
2019-03-24T09:55:17.718Z,85.27
2019-03-24T09:58:06.120Z,84.90
2019-03-24T10:00:54.677Z,81.40
2019-03-24T10:03:44.442Z,79.73
2019-03-24T10:06:33.317Z,78.60
2019-03-24T10:17:36.289Z,76.03
2019-03-24T10:20:56.079Z,70.23
2019-03-24T10:24:05.295Z,75.17
2019-03-24T10:26:56.774Z,78.33
2019-03-24T10:29:46.636Z,75.57
2019-03-24T10:32:35.860Z,77.03
2019-03-24T10:35:28.830Z,73.00
2019-03-24T10:38:26.999Z,71.20
2019-03-24T10:41:16.023Z,75.00
2019-03-24T10:44:05.137Z,74.33
2019-03-24T10:47:55.764Z,69.43
2019-03-24T10:50:48.839Z,77.30
2019-03-24T10:53:52.137Z,70.03
2019-03-24T10:56:58.406Z,72.60
2019-03-24T11:00:02.935Z,70.87
2019-03-24T11:03:28.654Z,73.57
2019-03-24T11:06:38.254Z,67.80
2019-03-24T11:09:29.700Z,72.00
2019-03-24T11:12:29.811Z,68.83
2019-03-24T11:15:26.487Z,72.17
2019-03-24T11:18:28.659Z,65.50
2019-03-24T11:21:29.806Z,66.33
2019-03-24T11:24:29.518Z,71.40
2019-03-24T11:27:30.358Z,68.10
2019-03-24T11:30:31.608Z,71.70
2019-03-24T11:33:35.340Z,73.70
2019-03-24T11:36:39.538Z,75.93
2019-03-24T11:39:35.564Z,78.23
2019-03-24T11:42:42.453Z,75.80
2019-03-24T11:45:42.571Z,80.00
2019-03-24T11:48:41.668Z,73.60
2019-03-24T11:51:32.214Z,80.27
2019-03-24T11:54:26.091Z,75.43
2019-03-24T11:57:24.857Z,73.03
2019-03-24T12:00:22.569Z,73.00
2019-03-24T12:03:19.999Z,77.40
2019-03-24T12:06:19.873Z,71.30
2019-03-24T12:09:17.814Z,70.30
2019-03-24T12:12:15.783Z,72.70
2019-03-24T12:15:31.792Z,70.57
2019-03-24T12:18:28.522Z,73.93
2019-03-24T12:21:19.961Z,70.67
2019-03-24T12:24:13.381Z,71.13
2019-03-24T12:27:09.504Z,73.00
2019-03-24T12:30:22.354Z,71.00
2019-03-24T12:33:14.908Z,71.57
2019-03-24T12:36:04.863Z,71.73
2019-03-24T12:38:53.785Z,72.63
2019-03-24T12:41:43.016Z,67.17
2019-03-24T12:44:31.667Z,72.00
2019-03-24T12:47:20.329Z,71.53
2019-03-24T12:50:14.544Z,72.53
2019-03-24T12:53:13.406Z,72.90
2019-03-24T12:56:09.684Z,64.97
2019-03-24T12:59:19.179Z,65.40
2019-03-24T13:02:13.577Z,62.13
2019-03-24T13:05:10.870Z,66.73
2019-03-24T13:08:25.165Z,61.10
2019-03-24T13:11:19.996Z,65.97
2019-03-24T13:14:08.134Z,63.20
2019-03-24T13:16:56.569Z,63.40
2019-03-24T13:19:47.511Z,64.37
2019-03-24T13:22:35.786Z,59.87
2019-03-24T13:25:24.434Z,59.57
2019-03-24T13:28:13.067Z,57.07
2019-03-24T13:31:04.116Z,55.57
2019-03-24T13:33:52.769Z,58.23
2019-03-24T13:36:51.929Z,52.73
2019-03-24T13:43:53.281Z,54.33
2019-03-24T13:46:42.084Z,54.90
2019-03-24T13:49:31.206Z,55.00
2019-03-24T13:52:19.651Z,48.77
2019-03-24T13:55:08.965Z,51.80
2019-03-24T13:57:58.500Z,51.97
2019-03-24T14:00:47.334Z,55.70
2019-03-24T14:03:35.572Z,55.30
2019-03-24T14:06:24.099Z,52.33
2019-03-24T14:09:19.116Z,51.80
2019-03-24T14:12:07.415Z,54.50
2019-03-24T14:14:58.239Z,53.47
2019-03-24T14:17:59.903Z,50.20
2019-03-24T14:20:48.946Z,52.97
2019-03-24T14:23:36.798Z,50.20
2019-03-24T14:26:25.309Z,49.60
2019-03-24T14:29:13.936Z,51.07
2019-03-24T14:32:03.202Z,52.43
2019-03-24T14:34:51.783Z,52.97
2019-03-24T14:37:40.021Z,53.00
2019-03-24T14:40:28.257Z,56.17
2019-03-24T14:43:19.198Z,51.40
2019-03-24T14:46:07.848Z,54.40
2019-03-24T14:49:22.383Z,54.30
2019-03-24T14:52:41.141Z,54.37
2019-03-24T14:55:27.302Z,50.97
2019-03-24T14:58:16.027Z,52.93
2019-03-24T15:01:09.633Z,47.17
2019-03-24T15:03:57.930Z,52.27
2019-03-24T15:06:45.955Z,51.57
2019-03-24T15:09:34.843Z,49.50
2019-03-24T15:12:23.493Z,51.90
2019-03-24T15:15:12.700Z,54.30
2019-03-24T15:18:14.819Z,53.13
2019-03-24T15:21:05.806Z,51.37
2019-03-24T15:23:54.140Z,55.20
2019-03-24T15:26:43.536Z,48.30
2019-03-24T15:29:34.837Z,51.97
2019-03-24T15:32:23.185Z,56.63
2019-03-24T15:35:12.393Z,50.70
2019-03-24T15:38:08.217Z,53.70
2019-03-24T15:40:50.983Z,56.70
2019-03-24T15:43:41.648Z,56.73
2019-03-24T15:46:30.682Z,53.97
2019-03-24T15:49:19.236Z,54.50
2019-03-24T15:52:07.947Z,52.47
2019-03-24T15:54:56.270Z,54.73
2019-03-24T15:57:44.577Z,54.17
2019-03-24T16:00:44.193Z,58.90
2019-03-24T16:03:33.037Z,53.60
2019-03-24T16:06:21.435Z,56.03
2019-03-24T16:09:09.763Z,61.93
2019-03-24T16:11:58.151Z,62.30
2019-03-24T16:14:46.897Z,56.87
2019-03-24T16:17:35.898Z,59.80
2019-03-24T16:21:07.138Z,59.13
2019-03-24T16:23:57.674Z,56.63
2019-03-24T16:26:46.108Z,56.57
2019-03-24T16:29:34.811Z,55.63
2019-03-24T16:32:23.203Z,54.53
2019-03-24T16:35:11.931Z,54.57
2019-03-24T16:38:00.173Z,54.20
2019-03-24T16:40:48.733Z,58.47
2019-03-24T16:43:38.430Z,57.73
2019-03-24T16:46:34.739Z,58.57
2019-03-24T16:49:23.611Z,53.73
2019-03-24T16:52:11.903Z,52.17
2019-03-24T16:55:00.953Z,52.90
2019-03-24T16:57:51.887Z,55.37
2019-03-24T17:00:40.449Z,52.53
2019-03-24T17:03:32.929Z,56.13
2019-03-24T17:07:11.959Z,58.20
2019-03-24T17:10:57.673Z,59.70
2019-03-24T17:14:07.937Z,58.63
2019-03-24T17:17:26.523Z,58.70
2019-03-24T17:20:50.250Z,53.17
2019-03-24T17:24:35.233Z,56.20
2019-03-24T17:27:27.974Z,59.67
2019-03-24T17:30:34.128Z,61.63
2019-03-24T17:34:14.363Z,62.37
2019-03-24T17:37:23.434Z,55.97
2019-03-24T17:40:13.375Z,56.20
2019-03-24T17:48:05.807Z,58.23
2019-03-24T17:51:40.876Z,59.30
2019-03-24T18:02:38.774Z,57.97
2019-03-24T18:08:45.955Z,59.30
2019-03-24T18:12:01.413Z,54.90
2019-03-24T18:14:45.008Z,55.20
2019-03-24T18:17:46.316Z,59.70
2019-03-24T18:20:35.829Z,56.80
2019-03-24T18:23:33.204Z,59.63
2019-03-24T18:30:31.420Z,53.10
2019-03-24T18:33:24.486Z,54.57
2019-03-24T18:36:17.367Z,64.10
2019-03-24T18:39:11.662Z,57.10
2019-03-24T18:42:03.015Z,57.13
2019-03-24T18:44:57.951Z,55.20
2019-03-24T18:48:11.238Z,55.70
2019-03-24T18:51:03.800Z,54.70
2019-03-24T18:54:10.193Z,54.03
2019-03-24T18:57:01.392Z,56.33
2019-03-24T19:00:01.112Z,56.20
2019-03-24T19:02:57.059Z,58.13
2019-03-24T19:06:04.759Z,61.07
2019-03-24T19:09:01.336Z,61.80
2019-03-24T19:12:17.834Z,58.63
2019-03-24T19:15:46.261Z,59.30
2019-03-24T19:18:34.629Z,59.57
2019-03-24T19:21:35.960Z,61.87
2019-03-24T19:24:33.291Z,53.73
2019-03-24T19:27:28.810Z,55.83
2019-03-24T19:30:29.777Z,60.07
2019-03-24T19:33:29.814Z,52.17
2019-03-24T19:36:28.439Z,58.40
2019-03-24T19:39:23.817Z,61.40
2019-03-24T19:42:19.187Z,58.50
2019-03-24T19:45:13.722Z,58.33
2019-03-24T19:48:02.737Z,60.63
2019-03-24T19:50:57.643Z,59.73
2019-03-24T19:54:20.798Z,56.27
2019-03-24T19:57:09.717Z,58.83
2019-03-24T20:00:03.803Z,62.07
2019-03-24T20:03:00.653Z,59.87
2019-03-24T20:05:54.416Z,60.93
2019-03-24T20:08:46.376Z,70.47
2019-03-24T20:11:40.199Z,58.00
2019-03-24T20:14:38.141Z,62.30
2019-03-24T20:17:40.549Z,64.20
2019-03-24T20:23:21.870Z,67.27
2019-03-24T20:26:32.582Z,68.03
2019-03-24T20:29:23.288Z,64.37
2019-03-24T20:32:12.244Z,61.87
2019-03-24T20:35:02.895Z,65.53
2019-03-24T20:38:17.874Z,65.33
2019-03-24T20:41:06.338Z,65.03
2019-03-24T20:49:03.215Z,63.97
2019-03-24T20:56:11.432Z,65.10
2019-03-24T22:20:54.529Z,58.73
2019-03-24T22:27:19.732Z,55.93
2019-03-24T22:30:40.636Z,55.93
2019-03-24T22:34:03.933Z,45.07
2019-03-24T22:37:51.855Z,45.57
2019-03-24T22:40:29.297Z,38.27
2019-03-24T22:47:36.991Z,33.30
2019-03-24T22:54:29.271Z,35.57
2019-03-24T22:57:57.165Z,32.53
2019-03-24T23:01:53.191Z,31.33
2019-03-24T23:05:38.036Z,33.00
2019-03-24T23:11:47.001Z,32.03
2019-03-24T23:17:57.397Z,36.07
2019-03-24T23:21:22.619Z,33.43
2019-03-24T23:24:31.972Z,31.57
2019-03-24T23:27:37.025Z,33.70
2019-03-24T23:30:36.142Z,31.30
2019-03-24T23:33:49.631Z,29.53
2019-03-24T23:37:22.283Z,32.80
2019-03-24T23:40:51.845Z,30.43
2019-03-24T23:47:23.219Z,28.77
2019-03-24T23:50:24.003Z,31.70
2019-03-24T23:53:36.001Z,30.40
2019-03-24T23:57:04.081Z,32.07
